Time;durP1;ratioP1;P1;durP2;ratioP2;P2;SDS_P1;SDS_P2;PMS_P1;PMS_P2;Temp;Humidity;BMP_temperature;BMP_pressure;BME280_temperature;BME280_humidity;BME280_pressure;Samples;Min_cycle;Max_cycle;Signal;HPM_P1;HPM_P2
2022/06/09 00:00:28;;;;;;;4.63;3.00;;;;;;;20.60;61.97;99294.97;4931837;28;20562;-85
2022/06/09 00:02:56;;;;;;;5.45;3.13;;;;;;;20.56;61.93;99292.94;4964365;28;20050;-85
2022/06/09 00:05:24;;;;;;;5.43;3.58;;;;;;;20.52;61.90;99300.56;4916548;28;20498;-85
2022/06/09 00:07:52;;;;;;;6.13;3.78;;;;;;;20.50;62.11;99308.03;4950370;28;20138;-85
2022/06/09 00:10:24;;;;;;;3.63;3.13;;;;;;;20.46;62.12;99304.13;4950519;28;20058;-85
2022/06/09 00:12:50;;;;;;;7.95;2.92;;;;;;;20.45;62.19;99312.44;4960102;28;20050;-83
2022/06/09 00:15:17;;;;;;;3.20;2.75;;;;;;;20.44;62.16;99322.41;4963287;28;20411;-83
2022/06/09 00:17:44;;;;;;;3.30;2.95;;;;;;;20.41;62.30;99316.59;4951203;28;20054;-83
2022/06/09 00:20:13;;;;;;;5.13;3.10;;;;;;;20.40;62.45;99315.75;4962939;28;20074;-83
2022/06/09 00:22:40;;;;;;;3.40;3.10;;;;;;;20.42;62.71;99318.25;4960656;28;20549;-83
2022/06/09 00:25:07;;;;;;;3.78;3.33;;;;;;;20.43;62.71;99319.91;4965613;28;20051;-82
2022/06/09 00:27:34;;;;;;;6.47;2.97;;;;;;;20.41;62.36;99314.72;4934597;28;20070;-85
2022/06/09 00:30:03;;;;;;;5.05;3.80;;;;;;;20.39;62.73;99317.63;4960780;28;20062;-88
2022/06/09 00:32:30;;;;;;;4.90;3.67;;;;;;;20.38;62.69;99324.06;4960149;28;20062;-88
2022/06/09 00:34:57;;;;;;;4.35;3.65;;;;;;;20.41;62.46;99330.91;4945852;28;20038;-88
2022/06/09 00:37:23;;;;;;;4.05;3.38;;;;;;;20.43;62.52;99322.59;4949283;28;20058;-80
2022/06/09 00:39:51;;;;;;;5.07;3.33;;;;;;;20.44;62.33;99324.28;4932757;28;20047;-80
2022/06/09 00:42:18;;;;;;;4.65;3.33;;;;;;;20.44;62.05;99330.47;4966613;28;20046;-81
2022/06/09 00:44:44;;;;;;;8.23;3.85;;;;;;;20.44;62.05;99326.97;4933781;28;20498;-85
2022/06/09 00:47:19;;;;;;;6.95;2.70;;;;;;;20.40;62.20;99326.53;4951594;28;20137;-85
2022/06/09 00:49:57;;;;;;;4.20;2.80;;;;;;;20.38;61.51;99329.47;4962096;28;20106;-85
2022/06/09 00:52:25;;;;;;;5.15;2.80;;;;;;;20.38;61.56;99329.47;4946997;28;20525;-85
2022/06/09 00:54:58;;;;;;;6.90;2.78;;;;;;;20.36;61.56;99341.50;4967084;28;20042;-85
2022/06/09 00:57:35;;;;;;;3.63;2.92;;;;;;;20.33;61.88;99333.84;4968526;28;20053;-85
2022/06/09 01:00:10;;;;;;;6.50;2.83;;;;;;;20.33;61.91;99339.25;4980366;28;20626;-85
2022/06/09 01:02:37;;;;;;;5.65;2.95;;;;;;;20.34;61.63;99343.59;4931201;28;20426;-86
2022/06/09 01:05:06;;;;;;;6.57;2.38;;;;;;;20.33;61.72;99344.63;4949127;28;20063;-81
2022/06/09 01:07:35;;;;;;;2.97;2.67;;;;;;;20.33;61.58;99353.53;4955860;28;20054;-81
2022/06/09 01:10:03;;;;;;;3.80;2.70;;;;;;;20.31;61.96;99352.91;4933255;28;20043;-81
2022/06/09 01:12:35;;;;;;;4.97;2.60;;;;;;;20.30;61.96;99355.81;4932404;28;20051;-80
2022/06/09 01:15:05;;;;;;;3.75;2.50;;;;;;;20.26;62.06;99352.72;4933153;28;20057;-80
2022/06/09 01:17:34;;;;;;;6.07;2.72;;;;;;;20.23;62.29;99352.31;4964736;28;20686;-81
2022/06/09 01:20:26;;;;;;;6.88;2.92;;;;;;;20.20;62.68;99358.97;4962759;28;20039;-80
2022/06/09 01:23:22;;;;;;;5.00;2.25;;;;;;;20.20;62.59;99352.72;4906902;28;20062;-82
2022/06/09 01:25:54;;;;;;;5.38;2.42;;;;;;;20.23;62.10;99353.16;4946091;28;20629;-80
2022/06/09 01:28:46;;;;;;;3.60;2.47;;;;;;;20.17;62.29;99356.66;4948736;28;20051;-80
2022/06/09 01:31:21;;;;;;;3.42;2.20;;;;;;;20.15;62.29;99356.06;4961955;28;20058;-80
2022/06/09 01:34:12;;;;;;;4.40;2.30;;;;;;;20.14;62.33;99357.09;4940648;28;20055;-83
2022/06/09 01:37:14;;;;;;;3.65;2.33;;;;;;;20.10;62.51;99350.50;4943168;28;20050;-83
2022/06/09 01:39:46;;;;;;;3.03;1.95;;;;;;;20.09;62.63;99348.81;4960685;28;20145;-83
2022/06/09 01:42:23;;;;;;;3.28;1.90;;;;;;;20.07;62.79;99353.56;4985371;28;20057;-82
2022/06/09 01:44:52;;;;;;;3.50;2.28;;;;;;;20.06;62.76;99347.38;4980472;28;20442;-82
2022/06/09 01:47:21;;;;;;;5.10;2.70;;;;;;;20.09;62.54;99354.19;4951073;28;20045;-83
2022/06/09 01:49:51;;;;;;;3.55;2.10;;;;;;;20.09;62.40;99357.72;4987305;28;20046;-82
2022/06/09 01:52:19;;;;;;;4.70;2.85;;;;;;;20.10;62.51;99362.09;4943841;28;20039;-82
2022/06/09 01:54:47;;;;;;;5.25;2.33;;;;;;;20.09;62.57;99360.41;4946393;28;20050;-83
2022/06/09 01:57:20;;;;;;;3.15;2.55;;;;;;;20.03;62.67;99363.97;4959843;28;20470;-83
2022/06/09 01:59:52;;;;;;;4.10;2.58;;;;;;;20.01;62.16;99365.19;4923605;28;20059;-83
2022/06/09 02:02:24;;;;;;;3.53;2.28;;;;;;;20.00;62.34;99364.38;4932580;28;20043;-87
2022/06/09 02:04:56;;;;;;;5.47;2.40;;;;;;;19.98;62.50;99368.31;4928474;28;20134;-88
2022/06/09 02:07:24;;;;;;;3.28;2.15;;;;;;;19.97;62.51;99374.72;4941779;28;20057;-88
2022/06/09 02:09:51;;;;;;;5.35;2.50;;;;;;;19.94;62.53;99367.88;4952851;28;20051;-85
2022/06/09 02:12:22;;;;;;;5.43;2.45;;;;;;;19.89;62.61;99370.38;4942741;28;20051;-85
2022/06/09 02:14:50;;;;;;;3.38;2.47;;;;;;;19.89;62.72;99375.78;4955348;28;20134;-84
2022/06/09 02:17:17;;;;;;;4.22;2.50;;;;;;;19.85;62.54;99383.44;4943351;28;20047;-80
2022/06/09 02:19:45;;;;;;;4.65;2.63;;;;;;;19.83;62.42;99379.31;4963691;28;20065;-80
2022/06/09 02:22:12;;;;;;;3.55;2.33;;;;;;;19.82;62.51;99385.72;4942951;28;20110;-80
2022/06/09 02:24:39;;;;;;;2.78;2.20;;;;;;;19.80;62.75;99387.81;4946244;28;20522;-80
2022/06/09 02:27:06;;;;;;;4.75;2.85;;;;;;;19.79;62.62;99384.25;4953091;28;20490;-80
2022/06/09 02:29:34;;;;;;;4.45;3.08;;;;;;;19.83;62.51;99388.22;4959708;28;20582;-80
2022/06/09 02:32:00;;;;;;;4.60;2.97;;;;;;;19.82;62.58;99391.09;4960784;28;20042;-81
2022/06/09 02:34:27;;;;;;;2.90;2.70;;;;;;;19.81;62.46;99395.66;4953558;28;20562;-80
2022/06/09 02:36:54;;;;;;;3.70;3.20;;;;;;;19.81;62.43;99392.16;4948584;28;20054;-80
2022/06/09 02:39:20;;;;;;;4.13;3.00;;;;;;;19.78;62.66;99396.09;4945644;28;20054;-80
2022/06/09 02:41:47;;;;;;;4.10;3.00;;;;;;;19.78;62.53;99393.38;4953873;28;20495;-80
2022/06/09 02:44:14;;;;;;;6.78;3.25;;;;;;;19.77;62.54;99397.13;4962290;28;20047;-81
2022/06/09 02:46:40;;;;;;;5.22;3.10;;;;;;;19.73;62.71;99399.38;4947525;28;20049;-80
2022/06/09 02:49:07;;;;;;;4.03;3.53;;;;;;;19.66;62.14;99395.81;4958600;28;20054;-81
2022/06/09 02:51:35;;;;;;;7.03;4.18;;;;;;;19.60;62.65;99403.91;4952356;28;20455;-81
2022/06/09 02:54:06;;;;;;;4.07;3.20;;;;;;;19.60;62.85;99403.91;4952839;28;20043;-81
2022/06/09 02:56:32;;;;;;;5.70;3.70;;;;;;;19.62;62.96;99401.84;4949380;28;20039;-81
2022/06/09 02:58:59;;;;;;;4.82;3.60;;;;;;;19.65;62.71;99404.13;4971603;28;20053;-81
2022/06/09 03:01:27;;;;;;;4.45;3.22;;;;;;;19.67;62.72;99412.88;4947313;28;20043;-87
2022/06/09 03:03:54;;;;;;;4.15;3.85;;;;;;;19.70;62.70;99418.66;4959754;28;20074;-88
2022/06/09 03:06:21;;;;;;;6.28;3.10;;;;;;;19.69;62.56;99419.72;4948314;28;20125;-86
2022/06/09 03:08:48;;;;;;;5.60;2.90;;;;;;;19.68;62.69;99411.81;4970692;28;20105;-84
2022/06/09 03:11:14;;;;;;;6.63;3.45;;;;;;;19.69;62.53;99408.94;4946787;28;20047;-84
2022/06/09 03:13:43;;;;;;;5.72;3.08;;;;;;;19.65;62.43;99413.03;4943487;28;20050;-83
2022/06/09 03:16:13;;;;;;;4.03;2.88;;;;;;;19.64;62.52;99414.06;4945269;28;20650;-86
2022/06/09 03:18:43;;;;;;;5.35;3.38;;;;;;;19.63;62.30;99415.09;4947964;28;20118;-86
2022/06/09 03:21:12;;;;;;;5.00;2.70;;;;;;;19.60;62.58;99418.19;4944677;28;20399;-86
2022/06/09 03:23:40;;;;;;;4.85;2.78;;;;;;;19.59;62.50;99421.09;4957066;28;20054;-85
2022/06/09 03:26:08;;;;;;;4.22;2.83;;;;;;;19.56;62.55;99416.13;4937006;28;20061;-86
2022/06/09 03:28:35;;;;;;;4.22;2.65;;;;;;;19.52;62.49;99416.53;4958871;28;20450;-86
2022/06/09 03:31:02;;;;;;;7.32;3.00;;;;;;;19.50;62.59;99415.91;4960325;28;20053;-86
2022/06/09 03:33:29;;;;;;;6.13;2.33;;;;;;;19.49;62.66;99421.50;4935395;28;20913;-84
2022/06/09 03:35:56;;;;;;;6.65;3.10;;;;;;;19.48;62.43;99422.53;4923146;28;20068;-85
2022/06/09 03:38:23;;;;;;;6.18;2.60;;;;;;;19.46;62.61;99425.44;4954685;28;20402;-84
2022/06/09 03:41:15;;;;;;;5.65;3.05;;;;;;;19.37;62.93;99437.41;4936832;28;20098;-84
2022/06/09 03:43:42;;;;;;;4.50;2.73;;;;;;;19.42;62.51;99429.56;4959081;28;20044;-83
2022/06/09 03:46:10;;;;;;;3.88;2.97;;;;;;;19.43;62.47;99420.44;4957172;28;20047;-86
2022/06/09 03:48:37;;;;;;;4.05;2.50;;;;;;;19.45;62.47;99425.63;4950275;28;20054;-85
2022/06/09 03:51:04;;;;;;;8.77;3.30;;;;;;;19.44;62.62;99429.38;4952026;28;20050;-85
2022/06/09 03:53:31;;;;;;;5.00;2.72;;;;;;;19.42;62.67;99432.25;4922692;28;20713;-84
2022/06/09 03:55:58;;;;;;;4.65;2.63;;;;;;;19.41;62.56;99437.81;4954326;28;20046;-85
2022/06/09 03:58:24;;;;;;;4.28;3.25;;;;;;;19.39;62.66;99435.34;4967401;28;20073;-85
2022/06/09 04:00:51;;;;;;;3.47;3.10;;;;;;;19.38;62.47;99432.84;4947096;28;20054;-85
2022/06/09 04:03:18;;;;;;;6.45;3.10;;;;;;;19.36;62.54;99440.28;4961258;28;20038;-85
2022/06/09 04:05:45;;;;;;;8.40;3.22;;;;;;;19.35;62.63;99438.66;4931385;28;20711;-85
2022/06/09 04:08:12;;;;;;;7.82;3.47;;;;;;;19.32;62.72;99445.25;4944836;28;20047;-85
2022/06/09 04:10:39;;;;;;;4.43;2.97;;;;;;;19.33;62.68;99448.78;4940230;28;20094;-85
2022/06/09 04:13:06;;;;;;;6.03;2.95;;;;;;;19.30;62.76;99455.41;4916488;28;20043;-85
2022/06/09 04:15:33;;;;;;;9.05;3.33;;;;;;;19.30;62.84;99456.22;4929697;28;20521;-86
2022/06/09 04:18:00;;;;;;;5.97;3.00;;;;;;;19.29;63.04;99462.66;4980243;28;20050;-87
2022/06/09 04:20:27;;;;;;;10.52;3.00;;;;;;;19.32;63.02;99463.28;4967741;28;20046;-87
2022/06/09 04:22:54;;;;;;;5.93;3.22;;;;;;;19.34;63.07;99463.91;4960677;28;20052;-88
2022/06/09 04:25:21;;;;;;;4.18;3.45;;;;;;;19.36;63.13;99468.06;4998796;28;20039;-87
2022/06/09 04:27:48;;;;;;;5.03;3.35;;;;;;;19.37;63.13;99468.91;4932255;28;20403;-87
2022/06/09 04:30:16;;;;;;;4.55;3.42;;;;;;;19.37;63.04;99469.72;4918479;28;20057;-87
2022/06/09 04:32:51;;;;;;;3.30;2.83;;;;;;;19.39;63.05;99462.28;4929467;28;20047;-87
2022/06/09 04:35:17;;;;;;;8.23;3.45;;;;;;;19.40;62.88;99465.78;4934546;28;20054;-87
2022/06/09 04:37:59;;;;;;;5.13;3.50;;;;;;;19.40;62.75;99465.78;4951745;28;20043;-87
2022/06/09 04:40:32;;;;;;;6.50;3.47;;;;;;;19.39;62.65;99469.53;4934061;28;20042;-87
2022/06/09 04:42:59;;;;;;;7.93;3.70;;;;;;;19.41;62.53;99478.22;4935073;28;20051;-87
2022/06/09 04:50:10;;;;;;;7.18;3.80;;;;;;;19.37;62.49;99487.75;4956312;28;20054;-84
2022/06/09 04:52:37;;;;;;;6.07;3.88;;;;;;;19.34;62.20;99486.28;4942368;28;20039;-84
2022/06/09 04:55:05;;;;;;;8.48;3.88;;;;;;;19.40;62.36;99506.19;4959111;28;20054;-89
2022/06/09 04:57:32;;;;;;;7.38;3.97;;;;;;;19.36;62.26;99499.53;4935509;28;20498;-87
2022/06/09 05:00:00;;;;;;;5.45;3.60;;;;;;;19.34;62.46;99504.31;4952725;28;20073;-87
2022/06/09 05:02:27;;;;;;;6.70;4.25;;;;;;;19.33;62.37;99508.00;4974229;28;20121;-89
2022/06/09 05:04:54;;;;;;;6.18;4.00;;;;;;;19.32;62.01;99514.44;4963340;28;20622;-87
2022/06/09 05:07:20;;;;;;;6.78;3.75;;;;;;;19.33;62.21;99527.69;4925960;28;20047;-88
2022/06/09 05:09:47;;;;;;;7.40;3.47;;;;;;;19.32;62.24;99525.22;4947267;28;20057;-87
2022/06/09 05:12:15;;;;;;;7.88;4.05;;;;;;;19.32;62.43;99530.59;4958201;28;20045;-87
2022/06/09 05:14:42;;;;;;;5.90;4.05;;;;;;;19.32;61.88;99533.28;4998160;28;20042;-87
2022/06/09 05:17:09;;;;;;;9.07;3.78;;;;;;;19.32;62.09;99539.50;4952239;28;20146;-86
2022/06/09 05:19:36;;;;;;;4.75;3.50;;;;;;;19.34;61.93;99545.50;4984143;28;20038;-86
2022/06/09 05:22:02;;;;;;;5.97;3.50;;;;;;;19.32;61.92;99538.66;4967742;28;20546;-84
2022/06/09 05:24:29;;;;;;;7.20;3.33;;;;;;;19.33;62.21;99546.53;4983803;28;20053;-84
2022/06/09 05:26:56;;;;;;;8.82;3.95;;;;;;;19.39;61.68;99547.63;4939065;28;20051;-83
2022/06/09 05:29:23;;;;;;;5.95;3.28;;;;;;;19.36;62.12;99558.75;4956074;28;20407;-88
2022/06/09 05:31:49;;;;;;;6.00;3.65;;;;;;;19.36;62.10;99561.44;4944409;28;20046;-88
2022/06/09 05:34:16;;;;;;;7.15;3.38;;;;;;;19.39;62.13;99563.78;4944352;28;20047;-88
2022/06/09 05:36:45;;;;;;;9.27;3.55;;;;;;;19.41;61.91;99564.38;4953540;28;20047;-87
2022/06/09 05:44:52;;;;;;;5.65;3.45;;;;;;;19.42;61.87;99571.44;4960332;28;20050;-87
2022/06/09 05:47:20;;;;;;;7.38;3.70;;;;;;;19.46;61.13;99565.47;4959994;28;20050;-88
2022/06/09 05:49:48;;;;;;;6.22;3.40;;;;;;;19.42;61.51;99571.44;4935199;28;20047;-89
2022/06/09 05:52:17;;;;;;;4.85;3.50;;;;;;;19.42;61.67;99569.56;4929151;28;20050;-87
2022/06/09 05:54:44;;;;;;;6.43;3.83;;;;;;;19.41;61.32;99567.94;4955196;28;20062;-88
2022/06/09 05:57:11;;;;;;;6.60;3.47;;;;;;;19.42;61.55;99579.53;4934221;28;20051;-88
2022/06/09 05:59:37;;;;;;;9.82;3.25;;;;;;;19.43;61.49;99576.59;4950500;28;20046;-89
2022/06/09 06:02:05;;;;;;;7.00;3.47;;;;;;;19.42;61.03;99577.66;4932383;28;20054;-89
2022/06/09 06:04:32;;;;;;;7.32;3.17;;;;;;;19.46;61.43;99580.75;4946628;28;20058;-85
2022/06/09 06:06:59;;;;;;;3.60;2.80;;;;;;;19.47;61.41;99577.06;4962026;28;20068;-85
2022/06/09 06:09:26;;;;;;;3.63;3.00;;;;;;;19.52;61.28;99577.28;4948065;28;20046;-85
2022/06/09 06:11:53;;;;;;;4.32;3.03;;;;;;;19.49;61.42;99583.91;4958615;28;20042;-87
2022/06/09 06:14:22;;;;;;;3.92;3.05;;;;;;;19.56;61.27;99597.38;4962595;28;20102;-87
2022/06/09 06:16:50;;;;;;;7.18;2.80;;;;;;;19.56;60.85;99597.38;4933957;28;20108;-87
2022/06/09 06:19:18;;;;;;;4.63;2.90;;;;;;;19.64;60.52;99602.63;4938887;28;20058;-86
2022/06/09 06:21:46;;;;;;;5.50;3.40;;;;;;;19.63;60.94;99608.19;4962144;28;20058;-86
2022/06/09 06:24:14;;;;;;;6.05;3.63;;;;;;;19.66;60.93;99610.50;4949846;28;20058;-87
2022/06/09 06:26:41;;;;;;;6.80;3.70;;;;;;;19.67;61.09;99613.03;4945704;28;20521;-88
2022/06/09 06:29:13;;;;;;;3.05;2.75;;;;;;;19.68;60.95;99608.47;4928470;28;20059;-87
2022/06/09 06:31:39;;;;;;;5.70;2.80;;;;;;;19.67;61.25;99621.09;4936809;28;20077;-86
2022/06/09 06:34:07;;;;;;;5.18;3.10;;;;;;;19.71;60.66;99621.53;4947054;28;20062;-87
2022/06/09 06:36:34;;;;;;;7.10;3.03;;;;;;;19.70;60.71;99623.41;4949641;28;20530;-87
2022/06/09 06:39:02;;;;;;;6.78;2.97;;;;;;;19.70;61.05;99622.56;4990242;28;20046;-85
2022/06/09 06:41:30;;;;;;;5.40;2.92;;;;;;;19.71;61.30;99625.03;4944589;28;20047;-86
2022/06/09 06:43:57;;;;;;;9.65;4.10;;;;;;;19.72;60.91;99637.50;4965333;28;20114;-85
2022/06/09 06:46:24;;;;;;;5.85;3.22;;;;;;;19.76;60.40;99634.41;4941441;28;20051;-86
2022/06/09 06:48:53;;;;;;;4.72;2.40;;;;;;;19.80;60.52;99636.50;4961175;28;20057;-85
2022/06/09 06:51:20;;;;;;;5.28;2.83;;;;;;;19.79;61.01;99632.13;4931357;28;20450;-86
2022/06/09 06:53:47;;;;;;;5.82;2.80;;;;;;;19.85;60.63;99639.44;4932284;28;20050;-84
2022/06/09 06:56:13;;;;;;;8.13;2.90;;;;;;;19.90;60.07;99641.53;4946304;28;20051;-85
2022/06/09 06:58:40;;;;;;;5.13;2.85;;;;;;;19.90;59.68;99638.81;4947239;28;20094;-86
2022/06/09 07:01:12;;;;;;;4.88;2.42;;;;;;;19.86;59.79;99637.56;4981434;28;20066;-85
2022/06/09 07:03:39;;;;;;;6.53;2.85;;;;;;;19.88;59.89;99648.97;4954876;28;20054;-86
2022/06/09 07:06:08;;;;;;;6.40;2.70;;;;;;;19.85;59.55;99652.06;4970571;28;20065;-85
2022/06/09 07:08:35;;;;;;;5.80;3.05;;;;;;;19.83;60.12;99662.22;4974132;28;20398;-85
2022/06/09 07:11:04;;;;;;;5.25;2.53;;;;;;;19.78;60.19;99651.22;4961289;28;20051;-89
2022/06/09 07:13:31;;;;;;;4.75;3.05;;;;;;;19.78;60.47;99665.50;4950176;28;20498;-89
2022/06/09 07:15:58;;;;;;;6.40;2.72;;;;;;;19.79;60.47;99659.06;4957856;28;20495;-84
2022/06/09 07:18:28;;;;;;;6.50;3.28;;;;;;;19.83;60.31;99665.72;4936231;28;20043;-84
2022/06/09 07:20:55;;;;;;;7.63;2.97;;;;;;;19.91;60.21;99662.03;4932323;28;20568;-88
2022/06/09 07:23:22;;;;;;;9.38;3.22;;;;;;;19.92;59.99;99663.69;4930874;28;20038;-87
2022/06/09 07:25:49;;;;;;;8.27;2.83;;;;;;;19.94;59.45;99664.31;4965004;28;20038;-87
2022/06/09 07:28:16;;;;;;;5.30;2.70;;;;;;;19.97;59.38;99657.69;4961292;28;20054;-87
2022/06/09 07:30:44;;;;;;;4.93;3.33;;;;;;;20.01;59.10;99665.19;4979351;28;20042;-87
2022/06/09 07:33:11;;;;;;;7.55;2.92;;;;;;;20.00;59.12;99663.53;4932245;28;20053;-89
2022/06/09 07:35:39;;;;;;;4.93;2.90;;;;;;;20.00;59.02;99662.69;4952108;28;20043;-88
2022/06/09 07:38:10;;;;;;;9.02;3.65;;;;;;;20.02;58.96;99669.53;4933035;28;20058;-89
2022/06/09 07:40:40;;;;;;;9.68;3.28;;;;;;;20.02;58.64;99661.44;4952957;28;20058;-89
2022/06/09 07:43:07;;;;;;;9.32;4.30;;;;;;;19.99;58.40;99651.06;4955102;28;20062;-86
2022/06/09 07:45:35;;;;;;;6.53;3.83;;;;;;;20.06;58.19;99676.19;4932036;28;20077;-87
2022/06/09 07:48:02;;;;;;;6.35;3.15;;;;;;;20.08;58.19;99666.06;4948618;28;20039;-87
2022/06/09 07:50:32;;;;;;;4.90;2.80;;;;;;;20.07;58.72;99667.06;4945146;28;20046;-88
2022/06/09 07:53:04;;;;;;;8.77;3.53;;;;;;;20.17;58.18;99675.63;4950605;28;20043;-86
2022/06/09 07:55:33;;;;;;;7.50;3.38;;;;;;;20.23;58.13;99681.25;4928238;28;20174;-86
2022/06/09 07:57:59;;;;;;;6.32;2.83;;;;;;;20.09;58.21;99680.34;4936829;28;20050;-90
2022/06/09 08:00:26;;;;;;;8.15;3.58;;;;;;;20.07;57.64;99683.25;4930800;28;20046;-90
2022/06/09 08:02:54;;;;;;;7.38;3.30;;;;;;;20.01;58.19;99691.31;4934549;28;20036;-89
2022/06/09 08:05:22;;;;;;;10.50;3.58;;;;;;;20.01;58.31;99691.31;4950847;28;20039;-86
2022/06/09 08:07:50;;;;;;;8.10;3.47;;;;;;;20.01;58.16;99699.41;4951102;28;20380;-86
2022/06/09 08:10:22;;;;;;;9.02;4.10;;;;;;;19.96;58.08;99700.00;4950497;28;20430;-84
2022/06/09 08:13:42;;;;;;;4.97;3.53;;;;;;;19.88;58.15;99700.16;4997641;28;20401;-86
2022/06/09 08:16:09;;;;;;;11.35;3.40;;;;;;;19.94;58.33;99700.19;4924936;28;20051;-87
2022/06/09 08:18:36;;;;;;;8.73;3.63;;;;;;;19.97;58.35;99698.13;4954721;28;20042;-86
2022/06/09 08:21:03;;;;;;;6.05;3.25;;;;;;;20.03;58.65;99705.44;4931322;28;20051;-89
2022/06/09 08:23:47;;;;;;;8.88;3.17;;;;;;;20.09;58.45;99694.66;4951795;28;20035;-86
2022/06/09 08:26:14;;;;;;;8.63;3.90;;;;;;;20.14;58.37;99697.59;4948555;28;20051;-87
2022/06/09 08:28:41;;;;;;;9.30;3.42;;;;;;;20.24;58.08;99694.50;4961997;28;20035;-87
2022/06/09 08:31:09;;;;;;;7.20;3.03;;;;;;;20.20;58.16;99714.84;4947089;28;20799;-86
2022/06/09 08:33:36;;;;;;;9.60;3.15;;;;;;;20.21;58.02;99711.09;4981240;28;21153;-87
2022/06/09 08:36:03;;;;;;;7.13;3.47;;;;;;;20.09;57.84;99710.00;4977694;28;20067;-85
2022/06/09 08:38:30;;;;;;;9.10;3.35;;;;;;;20.00;58.44;99712.06;4951317;28;20066;-86
2022/06/09 08:41:02;;;;;;;7.85;3.10;;;;;;;19.93;58.67;99712.00;4940956;28;20115;-84
2022/06/09 08:43:44;;;;;;;6.43;3.75;;;;;;;20.01;58.58;99723.66;4950956;28;20513;-85
2022/06/09 08:46:35;;;;;;;10.03;3.43;;;;;;;20.12;58.81;99723.06;4933525;28;20057;-87
2022/06/09 08:49:35;;;;;;;7.70;2.75;;;;;;;20.13;57.55;99720.19;4947299;28;20046;-86
2022/06/09 08:52:12;;;;;;;7.03;3.10;;;;;;;20.22;57.83;99723.53;4947742;28;20065;-86
2022/06/09 08:54:39;;;;;;;4.57;2.80;;;;;;;20.21;57.04;99724.56;4945224;28;20054;-85
2022/06/09 08:57:15;;;;;;;6.68;3.28;;;;;;;20.09;55.97;99731.56;4961904;28;20046;-85
2022/06/09 09:00:16;;;;;;;8.27;3.28;;;;;;;19.91;56.77;99722.16;4966774;28;20043;-84
2022/06/09 09:02:48;;;;;;;9.15;3.30;;;;;;;19.99;57.60;99723.03;4966258;28;20038;-84
2022/06/09 09:05:25;;;;;;;5.27;2.87;;;;;;;20.01;57.55;99729.06;4946594;28;20513;-84
2022/06/09 09:08:03;;;;;;;10.95;2.90;;;;;;;19.98;57.49;99738.38;4931951;28;20121;-84
2022/06/09 09:11:01;;;;;;;7.05;2.55;;;;;;;19.80;56.06;99732.66;4952101;28;20061;-84
2022/06/09 09:13:38;;;;;;;6.97;2.67;;;;;;;19.93;58.32;99733.56;4981177;28;20521;-88
2022/06/09 09:16:30;;;;;;;7.00;2.95;;;;;;;20.08;57.84;99732.63;4952603;28;20525;-85
2022/06/09 09:19:19;;;;;;;6.57;2.70;;;;;;;20.25;57.08;99731.25;4928510;28;20054;-85
2022/06/09 09:21:58;;;;;;;8.18;3.13;;;;;;;20.23;56.23;99745.97;4961432;28;20046;-85
2022/06/09 09:24:39;;;;;;;7.28;2.70;;;;;;;20.20;56.16;99749.88;4964661;28;20577;-86
2022/06/09 09:27:30;;;;;;;8.85;3.15;;;;;;;20.00;55.07;99757.00;4981922;28;20034;-85
2022/06/09 09:30:13;;;;;;;8.23;3.10;;;;;;;20.03;55.83;99757.47;4949161;28;20054;-86
2022/06/09 09:32:43;;;;;;;5.00;3.10;;;;;;;20.20;56.63;99754.44;4958239;28;20127;-87
2022/06/09 09:35:40;;;;;;;9.82;3.15;;;;;;;20.18;56.38;99754.66;4980348;28;20060;-87
2022/06/09 09:38:09;;;;;;;10.95;2.90;;;;;;;20.33;56.21;99758.03;4923847;28;20402;-86
2022/06/09 09:40:43;;;;;;;6.68;3.00;;;;;;;20.24;55.31;99761.91;4940064;28;20499;-87
2022/06/09 09:43:15;;;;;;;9.60;3.08;;;;;;;20.24;55.42;99764.63;4964442;28;20057;-87
2022/06/09 09:45:44;;;;;;;;;;;;;;;20.12;55.56;99756.28;4980209;28;20054;-87
2022/06/09 09:48:17;;;;;;;9.70;2.45;;;;;;;20.28;54.85;99768.59;4947110;28;19977;-87
2022/06/09 09:51:05;;;;;;;9.23;2.80;;;;;;;20.27;55.49;99764.22;4965284;28;20130;-83
2022/06/09 09:53:40;;;;;;;8.00;3.13;;;;;;;20.34;55.99;99770.47;4920872;28;20134;-83
2022/06/09 09:56:15;;;;;;;9.02;3.05;;;;;;;20.38;55.18;99760.13;4948563;28;20491;-86
2022/06/09 09:58:48;;;;;;;9.20;3.00;;;;;;;20.48;55.30;99760.59;4989060;28;20043;-87
2022/06/09 10:01:18;;;;;;;7.90;2.72;;;;;;;20.50;54.78;99753.09;4962310;28;20042;-86
2022/06/09 10:10:26;;;;;;;6.20;2.63;;;;;;;20.51;54.03;99765.56;4902019;28;20125;-86
2022/06/09 10:12:54;;;;;;;6.43;3.10;;;;;;;20.55;53.77;99769.53;4967941;28;20049;-87
2022/06/09 10:15:23;;;;;;;12.40;3.25;;;;;;;20.41;54.26;99772.38;4949282;28;21103;-87
2022/06/09 10:18:21;;;;;;;8.18;3.05;;;;;;;20.38;53.76;99770.91;4997922;28;20049;-88
2022/06/09 10:21:08;;;;;;;9.63;2.70;;;;;;;20.43;54.17;99776.53;4947757;28;20085;-87
2022/06/09 10:23:51;;;;;;;8.48;2.70;;;;;;;20.49;53.98;99770.31;4965400;28;20046;-87
2022/06/09 10:26:21;;;;;;;9.93;3.05;;;;;;;20.58;54.21;99781.78;4983556;28;20066;-87
2022/06/09 10:28:58;;;;;;;6.60;3.00;;;;;;;20.59;53.71;99783.47;4936371;28;20121;-87
2022/06/09 10:31:40;;;;;;;5.97;2.58;;;;;;;20.59;53.27;99778.91;4962033;28;20042;-88
2022/06/09 10:34:39;;;;;;;5.97;2.40;;;;;;;20.69;53.83;99789.31;4954695;28;20062;-88
2022/06/09 10:37:10;;;;;;;7.03;2.60;;;;;;;20.81;53.66;99784.13;4956684;28;20043;-87
2022/06/09 10:39:59;;;;;;;10.82;2.60;;;;;;;20.79;53.60;99787.06;4916500;28;20057;-86
2022/06/09 10:42:46;;;;;;;7.70;2.90;;;;;;;20.78;52.57;99787.25;4966551;28;20108;-83
2022/06/09 10:45:37;;;;;;;8.50;2.70;;;;;;;20.86;53.56;99788.94;4978334;28;20538;-83
2022/06/09 10:57:15;;;;;;;6.68;2.97;;;;;;;20.56;51.80;99800.91;4924833;28;20073;-88
2022/06/09 10:59:48;;;;;;;6.20;2.47;;;;;;;20.62;52.45;99785.75;4950103;28;20054;-86
2022/06/09 11:02:21;;;;;;;7.40;2.78;;;;;;;20.57;51.88;99802.53;4936248;28;20055;-86
2022/06/09 11:04:50;;;;;;;5.68;2.58;;;;;;;20.42;52.40;99807.22;4912696;28;20975;-86
2022/06/09 11:07:23;;;;;;;10.85;2.92;;;;;;;20.46;52.63;99799.56;4929982;28;20070;-86
2022/06/09 11:10:13;;;;;;;7.78;3.00;;;;;;;20.45;52.23;99797.91;4961065;28;20094;-87
2022/06/09 11:13:11;;;;;;;4.95;2.67;;;;;;;20.51;52.43;99797.13;4928598;28;20070;-86
2022/06/09 11:15:57;;;;;;;4.32;2.50;;;;;;;20.59;53.13;99803.19;4927103;28;20051;-86
2022/06/09 11:18:45;;;;;;;5.70;2.63;;;;;;;20.64;53.27;99791.78;4913073;28;20469;-86
2022/06/09 11:21:20;;;;;;;5.85;2.40;;;;;;;20.74;51.66;99803.03;4935004;28;20042;-86
2022/06/09 11:23:53;;;;;;;8.88;2.38;;;;;;;20.64;51.87;99821.47;4930257;28;20051;-83
2022/06/09 11:27:01;;;;;;;6.07;2.63;;;;;;;20.46;51.53;99813.88;4943680;28;20043;-84
2022/06/09 11:29:47;;;;;;;8.52;2.70;;;;;;;20.56;52.08;99810.84;4906742;28;20463;-83
2022/06/09 11:32:25;;;;;;;4.95;2.15;;;;;;;20.57;51.45;99821.44;4924917;29;20054;-83
2022/06/09 11:35:11;;;;;;;9.43;2.60;;;;;;;20.59;50.73;99822.06;4959010;28;20046;-83
2022/06/09 11:37:50;;;;;;;6.03;1.98;;;;;;;20.36;51.25;99816.13;4947233;28;20174;-86
2022/06/09 11:40:46;;;;;;;4.25;1.95;;;;;;;20.30;51.63;99815.06;4933764;28;20047;-86
2022/06/09 11:43:44;;;;;;;7.45;1.90;;;;;;;20.20;51.40;99814.59;4892105;28;20047;-87
2022/06/09 11:46:32;;;;;;;9.45;2.30;;;;;;;20.17;51.91;99810.44;4946524;28;20055;-87
2022/06/09 11:49:03;;;;;;;6.38;2.28;;;;;;;20.31;52.12;99814.03;4913112;28;20054;-86
2022/06/09 11:51:31;;;;;;;8.18;2.38;;;;;;;20.23;51.97;99821.44;4912593;28;20051;-86
2022/06/09 11:54:05;;;;;;;4.38;1.70;;;;;;;20.28;52.01;99805.50;4898436;28;20039;-86
2022/06/09 11:56:40;;;;;;;6.80;2.38;;;;;;;20.42;52.96;99809.91;4948523;28;20043;-86
2022/06/09 11:59:12;;;;;;;5.63;1.80;;;;;;;20.54;52.24;99802.94;4912925;28;20205;-87
2022/06/09 12:01:38;;;;;;;7.63;2.00;;;;;;;20.75;51.68;99807.38;4959292;28;20051;-86
2022/06/09 12:04:28;;;;;;;5.80;1.83;;;;;;;20.85;51.14;99809.69;4925555;28;20051;-86
2022/06/09 12:07:19;;;;;;;7.00;1.70;;;;;;;20.85;50.56;99808.88;4979142;28;20156;-86
2022/06/09 12:10:00;;;;;;;7.88;2.13;;;;;;;20.99;50.34;99811.41;4956404;28;20050;-86
2022/06/09 12:12:37;;;;;;;5.55;1.95;;;;;;;20.96;50.74;99816.38;4937957;28;20049;-86
2022/06/09 12:15:29;;;;;;;7.40;1.92;;;;;;;21.05;50.48;99817.03;4963969;28;20046;-86
2022/06/09 12:18:07;;;;;;;3.75;1.95;;;;;;;20.99;49.36;99811.41;4895687;28;20051;-86
2022/06/09 12:20:42;;;;;;;3.53;1.65;;;;;;;21.06;49.36;99818.69;4964929;28;20057;-83
2022/06/09 12:23:22;;;;;;;5.95;2.00;;;;;;;20.97;48.58;99821.56;4948196;28;20073;-86